Wednesday, November 21, 2018, 9:58 AM GMT
Back to Local

CYFC, Fredericton, N. B.

Location: , , Canada Lat: 45.867
Local Time: 9:58 AM GMT ( 9:58 GMT) Lon: -66.533
Time Zone: GMT Elev: 55 ft

Show me the last for .
Show Coded

Time T Td Feel RH Dir Speed Gust Alt SLP Vis Weather Sky Remarks
2018-11-21 09:06 27 25 19 92 310° 7 - 29.79 29.80 9 -SN SCT037 OVC045 None
2018-11-21 09:00 27 25 19 92 310° 7 - 29.79 29.80 9 SCT037 OVC045 None
2018-11-21 08:50 27 25 18 92 320° 8 - 29.79 29.80 9 BKN039 OVC046 None
2018-11-21 08:01 27 25 17 92 310° 9 - 29.78 29.79 9 -SN OVC043 None
2018-11-21 08:00 27 25 17 92 320° 10 - 29.78 29.79 9 OVC043 None
2018-11-21 07:40 27 25 17 92 320° 9 - 29.79 29.79 9 FEW035 BKN045 OVC055 None
2018-11-21 07:00 27 25 18 92 320° 8 - 29.78 29.79 9 -SN FEW038 BKN045 None
2018-11-21 06:31 27 25 17 92 330° 9 - 29.77 29.78 6 -SN FEW016 SCT028 OVC036 None
2018-11-21 06:00 27 27 18 100 340° 8 - 29.76 29.77 4 -SN FEW015 OVC033 None
2018-11-21 05:24 28 27 19 92 350° 10 - 29.76 29.76 3 -SN FEW012 OVC025 None
2018-11-21 05:00 28 27 19 92 350° 10 - 29.76 29.76 2 -SN FEW014 OVC025 None
2018-11-21 04:52 28 27 19 92 350° 10 - 29.76 29.76 2 -SN FEW010 SCT015 OVC025 None
2018-11-21 04:42 28 27 20 92 350° 9 - 29.76 29.77 2 -SN SCT013 OVC023 None
2018-11-21 04:00 28 27 20 92 350° 9 - 29.77 29.78 1 -SN FEW009 OVC018 None
2018-11-21 03:00 28 27 20 92 10° 9 - 29.80 29.80 1 -SN OVC014 None
2018-11-21 02:00 28 28 18 100 10° 12 - 29.81 29.81 1 -SN FEW006 OVC012 None
2018-11-21 01:04 28 27 20 92 10° 8 - 29.83 29.83 1 -SN FEW009 OVC018 None
2018-11-21 01:00 28 27 16 92 20° 9 17 29.83 29.83 2 -SN FEW009 OVC018 None
2018-11-21 00:55 28 27 16 92 20° 8 17 29.83 29.83 2 -SN SCT009 OVC018 None
2018-11-21 00:00 28 27 19 92 20° 10 - 29.84 29.84 1 -SN SCT009 SCT013 OVC018 None
2018-11-20 23:26 28 28 19 100 30° 10 - 29.84 29.85 1 -SN SCT012 OVC016 None
2018-11-20 23:12 28 28 19 100 20° 10 - 29.85 29.85 2 -SN FEW009 BKN015 OVC030 None
2018-11-20 23:04 28 28 19 100 20° 10 - 29.85 29.86 1 -SN SCT009 BKN014 OVC018 None
2018-11-20 23:00 28 28 20 100 20° 8 - 29.85 29.86 1 -SN BKN009 OVC018 None
2018-11-20 22:55 28 28 18 100 20° 12 - 29.85 29.86 1 -SN SCT009 BKN014 OVC018 None
2018-11-20 22:53 28 28 20 100 20° 9 - 29.85 29.86 2 -SN SCT009 BKN014 OVC018 None
2018-11-20 22:46 28 28 20 100 30° 8 - 29.85 29.86 2 -SN BKN009 BKN013 OVC021 None
2018-11-20 22:44 28 28 20 100 20° 9 - 29.86 29.86 1 -SN SCT009 BKN013 OVC021 None
2018-11-20 22:41 28 28 20 100 20° 8 - 29.86 29.86 1 -SN BKN009 BKN013 OVC021 None
2018-11-20 22:35 28 28 20 100 20° 8 - 29.86 29.87 1 -SN SCT009 OVC015 None
2018-11-20 22:31 28 28 20 100 20° 9 - 29.86 29.86 1 -SN BKN009 OVC015 None
2018-11-20 22:00 28 28 20 100 20° 9 - 29.87 29.88 1 -SN FEW008 BKN013 OVC018 None
2018-11-20 21:25 28 28 21 100 20° 7 - 29.88 29.89 1 -SN BKN014 OVC023 None
2018-11-20 21:00 28 28 20 100 10° 8 - 29.89 29.90 2 -SN FEW009 OVC023 None
2018-11-20 20:38 28 28 20 100 10° 9 - 29.89 29.90 1 -SN BKN011 OVC023 None
2018-11-20 20:31 28 28 20 100 20° 8 - 29.89 29.90 2 -SN BKN011 OVC025 None
2018-11-20 20:00 28 27 20 92 10° 9 - 29.91 29.91 5 -SN OVC013 None
2018-11-20 19:34 30 27 21 86 360° 10 - 29.92 29.93 9 -SN OVC013 None
2018-11-20 19:00 30 27 21 86 350° 10 - 29.93 29.94 9 OVC013 None
2018-11-20 18:00 30 27 22 86 10° 9 - 29.93 29.93 9 OVC013 None
2018-11-20 17:00 30 27 23 86 10° 8 - 29.94 29.94 9 OVC013 None
2018-11-20 16:00 28 25 20 86 360° 9 - 29.96 29.97 9 BKN013 BKN140 None
2018-11-20 15:55 28 25 20 86 10° 8 - 29.96 29.96 9 BKN013 BKN140 Pressure falling rapidly
2018-11-20 15:02 28 25 20 86 30° 8 - 29.99 30.00 9 SCT010 None
2018-11-20 15:00 28 25 20 86 30° 8 - 29.99 30.00 9 BKN010 None
2018-11-20 14:38 28 25 - 86 340° 2 - 30.00 30.01 9 BKN010 None
2018-11-20 14:00 27 25 23 92 330° 3 - 30.00 30.01 9 CLR None
2018-11-20 13:00 27 25 21 92 320° 5 - 30.00 30.01 9 FEW100 None
2018-11-20 12:00 25 25 16 100 330° 8 - 30.00 30.01 9 SCT110 SCT130 None
2018-11-20 11:00 27 27 20 100 320° 6 - 30.00 30.01 9 BKN130 None
2018-11-20 10:00 27 27 - 100 330° 2 - 29.99 30.00 9 BKN140 None

Support USWX by starting your Amazon purchase here.